createdAt,value
2019-05-11T00:00:11.483Z,16.03
2019-05-11T00:02:40.843Z,19.40
2019-05-11T00:05:10.264Z,17.30
2019-05-11T00:07:39.551Z,19.67
2019-05-11T00:10:08.907Z,17.63
2019-05-11T00:12:38.199Z,21.53
2019-05-11T00:15:07.619Z,20.20
2019-05-11T00:17:36.921Z,21.73
2019-05-11T00:20:09.243Z,17.57
2019-05-11T00:22:38.519Z,20.70
2019-05-11T00:25:08.244Z,23.80
2019-05-11T00:27:37.538Z,17.00
2019-05-11T00:30:07.131Z,19.37
2019-05-11T00:32:36.421Z,19.07
2019-05-11T00:35:07.616Z,20.40
2019-05-11T00:37:36.904Z,22.70
2019-05-11T00:40:14.288Z,23.00
2019-05-11T00:42:38.779Z,20.07
2019-05-11T00:45:08.408Z,18.77
2019-05-11T00:47:37.710Z,18.87
2019-05-11T00:50:10.122Z,18.10
2019-05-11T00:52:39.422Z,34.67
2019-05-11T00:55:08.871Z,22.43
2019-05-11T00:57:38.153Z,18.47
2019-05-11T01:00:09.175Z,18.33
2019-05-11T01:02:38.480Z,22.50
2019-05-11T01:05:08.059Z,20.90
2019-05-11T01:07:37.320Z,22.87
2019-05-11T01:10:23.193Z,22.93
2019-05-11T01:12:39.558Z,21.97
2019-05-11T01:15:09.297Z,21.93
2019-05-11T01:17:38.582Z,20.50
2019-05-11T01:20:08.401Z,19.07
2019-05-11T01:22:37.688Z,18.77
2019-05-11T01:25:07.059Z,19.77
2019-05-11T01:27:36.387Z,18.53
2019-05-11T01:30:06.927Z,22.63
2019-05-11T01:32:36.270Z,20.03
2019-05-11T01:35:08.630Z,22.27
2019-05-11T01:37:37.899Z,21.43
2019-05-11T01:40:08.504Z,21.20
2019-05-11T01:42:37.790Z,17.97
2019-05-11T01:45:07.815Z,23.30
2019-05-11T01:47:37.103Z,17.80
2019-05-11T01:50:06.388Z,19.80
2019-05-11T01:52:35.668Z,18.87
2019-05-11T01:55:05.433Z,17.23
2019-05-11T01:57:34.742Z,18.87
2019-05-11T02:00:06.919Z,17.30
2019-05-11T02:02:36.326Z,19.10
2019-05-11T02:05:24.919Z,17.00
2019-05-11T02:07:54.259Z,13.77
2019-05-11T02:10:23.555Z,15.90
2019-05-11T02:12:53.305Z,13.80
2019-05-11T02:15:22.650Z,13.40
2019-05-11T02:17:52.902Z,16.33
2019-05-11T02:20:22.186Z,13.73
2019-05-11T02:22:51.454Z,15.60
2019-05-11T02:25:20.745Z,14.27
2019-05-11T02:27:50.013Z,17.97
2019-05-11T02:30:19.555Z,13.47
2019-05-11T02:32:48.911Z,15.27
2019-05-11T02:35:18.192Z,13.93
2019-05-11T02:37:47.464Z,14.57
2019-05-11T02:40:17.691Z,16.50
2019-05-11T02:42:46.973Z,14.83
2019-05-11T02:45:19.319Z,17.97
2019-05-11T02:47:48.589Z,15.37
2019-05-11T02:50:17.874Z,15.93
2019-05-11T02:52:48.015Z,16.50
2019-05-11T02:55:17.291Z,13.77
2019-05-11T02:57:46.565Z,15.37
2019-05-11T03:00:19.998Z,19.53
2019-05-11T03:02:49.286Z,18.83
2019-05-11T03:05:18.555Z,14.60
2019-05-11T03:07:47.835Z,15.47
2019-05-11T03:10:17.118Z,15.90
2019-05-11T03:12:46.394Z,13.87
2019-05-11T03:15:15.738Z,16.80
2019-05-11T03:17:45.020Z,15.70
2019-05-11T03:20:14.362Z,17.77
2019-05-11T03:22:43.651Z,15.17
2019-05-11T03:25:13.104Z,19.17
2019-05-11T03:27:42.511Z,29.23
2019-05-11T03:30:11.918Z,24.10
2019-05-11T03:32:41.205Z,21.13
2019-05-11T03:35:10.710Z,19.80
2019-05-11T03:37:39.981Z,17.80
2019-05-11T03:40:10.003Z,18.43
2019-05-11T03:42:39.277Z,17.47
2019-05-11T03:45:08.694Z,16.77
2019-05-11T03:47:38.055Z,22.70
2019-05-11T03:50:07.667Z,23.47
2019-05-11T03:52:36.951Z,20.77
2019-05-11T03:55:07.343Z,18.93
2019-05-11T03:57:36.635Z,21.50
2019-05-11T04:00:07.455Z,23.27
2019-05-11T04:02:36.732Z,19.57
2019-05-11T04:05:06.104Z,24.27
2019-05-11T04:07:35.366Z,21.83
2019-05-11T04:10:06.748Z,21.27
2019-05-11T04:12:36.121Z,22.93
2019-05-11T04:15:06.942Z,18.17
2019-05-11T04:17:36.231Z,25.10
2019-05-11T04:20:06.546Z,22.77
2019-05-11T04:22:35.898Z,21.60
2019-05-11T04:25:06.436Z,22.87
2019-05-11T04:27:36.088Z,27.73
2019-05-11T04:30:07.064Z,24.93
2019-05-11T04:32:36.356Z,24.03
2019-05-11T04:35:06.381Z,27.77
2019-05-11T04:37:35.666Z,27.77
2019-05-11T04:40:05.990Z,25.00
2019-05-11T04:42:53.277Z,26.07
2019-05-11T04:45:07.800Z,24.67
2019-05-11T04:47:37.102Z,26.43
2019-05-11T04:50:07.823Z,29.97
2019-05-11T04:52:37.113Z,23.60
2019-05-11T04:55:06.719Z,23.80
2019-05-11T04:57:36.010Z,24.87
2019-05-11T05:00:07.155Z,26.33
2019-05-11T05:02:36.451Z,29.20
2019-05-11T05:05:06.479Z,29.47
2019-05-11T05:07:35.776Z,26.57
2019-05-11T05:10:06.298Z,28.03
2019-05-11T05:12:35.570Z,33.83
2019-05-11T05:15:06.194Z,31.43
2019-05-11T05:17:35.472Z,26.30
2019-05-11T05:20:08.859Z,29.70
2019-05-11T05:22:38.139Z,28.90
2019-05-11T05:25:07.972Z,31.27
2019-05-11T05:27:37.256Z,28.03
2019-05-11T05:30:07.298Z,31.67
2019-05-11T05:32:36.773Z,28.30
2019-05-11T05:35:06.687Z,31.13
2019-05-11T05:37:36.307Z,28.00
2019-05-11T05:40:05.840Z,30.67
2019-05-11T05:42:35.108Z,24.03
2019-05-11T05:45:06.339Z,25.00
2019-05-11T05:47:35.626Z,24.53
2019-05-11T05:50:06.254Z,24.83
2019-05-11T05:52:35.515Z,26.73
2019-05-11T05:55:05.941Z,26.63
2019-05-11T05:57:35.212Z,28.57
2019-05-11T06:00:05.710Z,29.73
2019-05-11T06:02:34.982Z,27.80
2019-05-11T06:05:08.190Z,25.57
2019-05-11T06:07:38.487Z,29.57
2019-05-11T06:10:08.707Z,25.73
2019-05-11T06:12:37.982Z,26.40
2019-05-11T06:15:07.910Z,29.17
2019-05-11T06:17:37.188Z,22.17
2019-05-11T06:20:07.827Z,25.83
2019-05-11T06:22:37.638Z,24.73
2019-05-11T06:25:07.060Z,24.40
2019-05-11T06:27:36.347Z,21.80
2019-05-11T06:30:09.627Z,21.40
2019-05-11T06:32:38.903Z,19.10
2019-05-11T06:35:08.332Z,24.03
2019-05-11T06:37:37.620Z,21.17
2019-05-11T06:40:09.903Z,20.03
2019-05-11T06:42:39.186Z,19.17
2019-05-11T06:45:09.413Z,19.13
2019-05-11T06:47:38.682Z,19.03
2019-05-11T06:50:08.213Z,17.03
2019-05-11T06:52:37.482Z,18.10
2019-05-11T06:55:07.008Z,19.30
2019-05-11T06:57:36.288Z,19.30
2019-05-11T07:00:06.608Z,20.03
2019-05-11T07:02:35.888Z,22.17
2019-05-11T07:05:07.318Z,19.23
2019-05-11T07:07:47.193Z,21.27
2019-05-11T07:10:08.241Z,19.67
2019-05-11T07:12:37.511Z,19.40
2019-05-11T07:15:07.326Z,22.50
2019-05-11T07:17:36.674Z,16.77
2019-05-11T07:20:07.087Z,17.57
2019-05-11T07:22:36.382Z,18.10
2019-05-11T07:25:06.896Z,17.77
2019-05-11T07:27:36.183Z,19.13
2019-05-11T07:30:07.997Z,18.17
2019-05-11T07:32:38.107Z,15.93
2019-05-11T07:35:08.504Z,17.00
2019-05-11T07:37:38.724Z,16.50
2019-05-11T07:40:08.907Z,15.73
2019-05-11T07:42:39.163Z,20.33
2019-05-11T07:45:10.155Z,17.67
2019-05-11T07:47:39.455Z,21.67
2019-05-11T07:50:08.885Z,21.23
2019-05-11T07:52:38.181Z,20.57
2019-05-11T07:55:08.568Z,21.90
2019-05-11T07:57:39.032Z,20.27
2019-05-11T08:00:09.280Z,18.93
2019-05-11T08:02:38.999Z,21.93
2019-05-11T08:05:09.699Z,18.00
2019-05-11T08:07:38.992Z,14.00
2019-05-11T08:10:09.009Z,18.53
2019-05-11T08:12:39.116Z,16.17
2019-05-11T08:15:13.605Z,19.60
2019-05-11T08:17:40.955Z,25.73
2019-05-11T08:20:11.100Z,25.00
2019-05-11T08:22:40.396Z,23.40
2019-05-11T08:25:09.809Z,27.90
2019-05-11T08:27:39.166Z,29.73
2019-05-11T08:30:11.523Z,28.73
2019-05-11T08:32:40.820Z,27.73
2019-05-11T08:35:10.455Z,32.37
2019-05-11T08:37:39.751Z,32.70
2019-05-11T08:40:09.099Z,35.60
2019-05-11T08:42:39.465Z,39.00
2019-05-11T08:45:18.956Z,37.40
2019-05-11T08:47:40.542Z,38.67
2019-05-11T08:50:10.405Z,39.07
2019-05-11T08:52:39.723Z,36.93
2019-05-11T08:55:10.636Z,33.20
2019-05-11T08:57:39.923Z,42.03
2019-05-11T09:00:13.470Z,31.00
2019-05-11T09:02:46.589Z,30.33
2019-05-11T09:05:14.251Z,32.83
2019-05-11T09:07:43.547Z,30.77
2019-05-11T09:10:13.063Z,28.40
2019-05-11T09:12:43.573Z,26.70
2019-05-11T09:15:28.956Z,23.40
2019-05-11T09:17:44.295Z,24.03
2019-05-11T09:20:13.828Z,30.03
2019-05-11T09:22:43.138Z,31.80
2019-05-11T09:25:12.762Z,33.30
2019-05-11T09:27:43.529Z,37.60
2019-05-11T09:30:14.167Z,36.93
2019-05-11T09:32:43.511Z,40.03
2019-05-11T09:35:12.811Z,48.43
2019-05-11T09:37:42.091Z,49.53
2019-05-11T09:40:11.555Z,48.50
2019-05-11T09:42:40.866Z,47.00
2019-05-11T09:45:10.427Z,52.00
2019-05-11T09:47:39.710Z,62.23
2019-05-11T09:50:09.079Z,67.40
2019-05-11T09:52:38.666Z,65.10
2019-05-11T09:55:09.486Z,68.97
2019-05-11T09:57:38.887Z,70.17
2019-05-11T10:00:09.564Z,76.60
2019-05-11T10:02:38.909Z,78.00
2019-05-11T10:05:08.648Z,88.47
2019-05-11T10:07:38.325Z,87.07
2019-05-11T10:10:09.483Z,91.07
2019-05-11T10:12:38.836Z,92.60
2019-05-11T10:15:08.784Z,86.83
2019-05-11T10:17:38.465Z,85.47
2019-05-11T10:20:09.321Z,84.17
2019-05-11T10:22:38.945Z,78.53
2019-05-11T10:25:09.083Z,78.27
2019-05-11T10:27:38.675Z,78.83
2019-05-11T10:30:08.419Z,72.93
2019-05-11T10:32:38.145Z,73.27
2019-05-11T10:35:08.292Z,67.13
2019-05-11T10:37:39.129Z,62.43
2019-05-11T10:40:10.203Z,69.17
2019-05-11T10:42:39.550Z,57.40
2019-05-11T10:45:09.283Z,57.83
2019-05-11T10:47:39.725Z,53.37
2019-05-11T10:50:09.478Z,53.10
2019-05-11T10:52:38.763Z,50.83
2019-05-11T10:55:08.784Z,47.37
2019-05-11T10:57:38.831Z,45.30
2019-05-11T11:00:09.314Z,42.53
2019-05-11T11:02:38.686Z,40.37
2019-05-11T11:05:09.435Z,43.23
2019-05-11T11:07:38.758Z,42.70
2019-05-11T11:10:09.037Z,35.80
2019-05-11T11:12:38.774Z,37.97
2019-05-11T11:15:09.987Z,36.33
2019-05-11T11:17:39.364Z,34.00
2019-05-11T11:20:08.987Z,37.47
2019-05-11T11:22:43.637Z,35.53
2019-05-11T11:25:09.826Z,27.73
2019-05-11T11:27:39.110Z,27.70
2019-05-11T11:30:09.306Z,33.23
2019-05-11T11:32:39.765Z,32.20
2019-05-11T11:35:10.391Z,28.40
2019-05-11T11:37:39.760Z,25.47
2019-05-11T11:40:09.478Z,26.17
2019-05-11T11:42:38.910Z,26.50
2019-05-11T11:45:10.906Z,28.70
2019-05-11T11:47:41.271Z,27.77
2019-05-11T11:50:10.804Z,22.60
2019-05-11T11:52:40.093Z,24.70
2019-05-11T11:55:21.287Z,23.07
2019-05-11T11:57:50.616Z,24.97
2019-05-11T12:00:19.991Z,26.57
2019-05-11T12:02:49.350Z,25.87
2019-05-11T12:05:18.699Z,23.33
2019-05-11T12:07:49.030Z,24.97
2019-05-11T12:10:18.737Z,22.10
2019-05-11T12:12:48.073Z,23.37
2019-05-11T12:15:17.908Z,19.80
2019-05-11T12:17:48.294Z,20.93
2019-05-11T12:20:18.206Z,21.87
2019-05-11T12:22:47.765Z,22.00
2019-05-11T12:25:18.488Z,18.97
2019-05-11T12:27:49.096Z,26.23
2019-05-11T12:30:19.252Z,18.47
2019-05-11T12:32:50.121Z,20.67
2019-05-11T12:35:19.530Z,18.93
2019-05-11T12:37:48.823Z,21.63
2019-05-11T12:40:18.442Z,18.77
2019-05-11T12:42:48.868Z,18.47
2019-05-11T12:45:19.142Z,16.67
2019-05-11T12:47:48.512Z,17.93
2019-05-11T12:50:19.872Z,19.57
2019-05-11T12:52:49.175Z,18.37
2019-05-11T12:55:18.704Z,18.03
2019-05-11T12:57:48.212Z,19.37
2019-05-11T13:00:18.315Z,18.20
2019-05-11T13:02:48.452Z,15.40
2019-05-11T13:05:18.539Z,17.47
2019-05-11T13:07:48.368Z,18.43
2019-05-11T13:10:18.215Z,19.87
2019-05-11T13:12:49.250Z,23.37
2019-05-11T13:15:19.314Z,17.17
2019-05-11T13:17:49.265Z,16.23
2019-05-11T13:20:18.745Z,15.07
2019-05-11T13:22:48.880Z,18.47
2019-05-11T13:25:18.493Z,19.60
2019-05-11T13:27:49.222Z,16.00
2019-05-11T13:30:19.000Z,18.27
2019-05-11T13:32:48.968Z,18.13
2019-05-11T13:35:18.664Z,16.80
2019-05-11T13:37:48.162Z,18.37
2019-05-11T13:40:18.396Z,19.03
2019-05-11T13:42:49.008Z,24.63
2019-05-11T13:45:18.545Z,24.47
2019-05-11T13:47:55.195Z,20.77
2019-05-11T13:50:18.819Z,27.07
2019-05-11T13:52:48.113Z,25.63
2019-05-11T13:55:18.184Z,18.07
2019-05-11T13:57:48.560Z,18.27
2019-05-11T14:00:18.521Z,20.13
2019-05-11T14:02:48.621Z,17.70
2019-05-11T14:05:18.241Z,20.07
2019-05-11T14:07:48.288Z,17.73
2019-05-11T14:10:18.327Z,20.33
2019-05-11T14:12:47.938Z,14.27
2019-05-11T14:15:18.893Z,22.67
2019-05-11T14:18:04.407Z,20.27
2019-05-11T14:20:22.265Z,15.77
2019-05-11T14:22:51.530Z,15.30
2019-05-11T14:25:20.837Z,15.13
2019-05-11T14:27:50.112Z,15.93
2019-05-11T14:30:20.245Z,13.83
2019-05-11T14:32:49.590Z,14.87
2019-05-11T14:35:19.126Z,13.30
2019-05-11T14:37:48.760Z,14.47
2019-05-11T14:40:18.203Z,13.83
2019-05-11T14:42:49.012Z,12.40
2019-05-11T14:45:18.992Z,11.13
2019-05-11T14:47:48.584Z,18.37
2019-05-11T14:50:18.843Z,17.03
2019-05-11T14:52:49.242Z,16.17
2019-05-11T14:55:19.701Z,12.57
2019-05-11T14:57:49.004Z,10.07
2019-05-11T15:00:18.770Z,11.77
2019-05-11T15:02:49.610Z,10.47
2019-05-11T15:05:21.535Z,11.47
2019-05-11T15:07:52.770Z,11.83
2019-05-11T15:10:22.083Z,11.67
2019-05-11T15:12:51.371Z,10.70
2019-05-11T15:15:20.728Z,11.20
2019-05-11T15:17:50.035Z,11.30
2019-05-11T15:20:19.444Z,9.43
2019-05-11T15:22:49.117Z,10.70
2019-05-11T15:25:19.970Z,10.20
2019-05-11T15:27:49.578Z,11.00
2019-05-11T15:30:19.395Z,9.13
2019-05-11T15:32:48.695Z,11.37
2019-05-11T15:35:18.758Z,9.77
2019-05-11T15:37:48.419Z,12.53
2019-05-11T15:40:19.050Z,11.23
2019-05-11T15:42:48.838Z,15.77
2019-05-11T15:45:19.051Z,12.70
2019-05-11T15:47:48.876Z,10.67
2019-05-11T15:50:19.303Z,13.27
2019-05-11T15:52:49.108Z,12.13
2019-05-11T15:55:20.279Z,18.53
2019-05-11T15:57:50.552Z,10.67
2019-05-11T16:00:20.158Z,11.83
2019-05-11T16:02:49.515Z,10.77
2019-05-11T16:05:19.828Z,13.50
2019-05-11T16:07:49.468Z,12.97
2019-05-11T16:10:19.926Z,9.07
2019-05-11T16:12:49.305Z,11.57
2019-05-11T16:15:20.014Z,11.63
2019-05-11T16:17:49.861Z,8.87
2019-05-11T16:20:19.460Z,15.27
2019-05-11T16:22:48.758Z,14.27
2019-05-11T16:25:19.856Z,13.27
2019-05-11T16:27:49.074Z,9.10
2019-05-11T16:30:21.632Z,9.13
2019-05-11T16:32:50.536Z,13.70
2019-05-11T16:35:19.959Z,9.67
2019-05-11T16:37:49.255Z,16.67
2019-05-11T16:40:20.784Z,10.93
2019-05-11T16:42:49.890Z,12.13
2019-05-11T16:45:19.498Z,17.10
2019-05-11T16:47:50.124Z,15.97
2019-05-11T16:50:19.462Z,14.00
2019-05-11T16:52:48.748Z,15.47
2019-05-11T16:55:18.600Z,14.57
2019-05-11T16:57:48.757Z,14.17
2019-05-11T17:00:19.043Z,11.87
2019-05-11T17:02:49.152Z,10.93
2019-05-11T17:05:26.628Z,17.77
2019-05-11T17:07:49.964Z,16.63
2019-05-11T17:10:19.393Z,17.50
2019-05-11T17:12:49.037Z,16.43
2019-05-11T17:15:19.057Z,20.03
2019-05-11T17:17:49.263Z,12.63
2019-05-11T17:20:19.172Z,13.00
2019-05-11T17:22:49.133Z,12.43
2019-05-11T17:25:19.795Z,14.40
2019-05-11T17:27:50.140Z,13.00
2019-05-11T17:30:19.999Z,11.93
2019-05-11T17:32:49.827Z,16.00
2019-05-11T17:35:19.526Z,12.20
2019-05-11T17:37:49.026Z,9.57
2019-05-11T17:40:23.116Z,11.03
2019-05-11T17:42:53.553Z,17.17
2019-05-11T17:45:21.201Z,10.10
2019-05-11T17:47:50.538Z,11.07
2019-05-11T17:50:19.888Z,10.90
2019-05-11T17:52:49.183Z,17.80
2019-05-11T17:55:18.804Z,9.90
2019-05-11T17:57:49.171Z,14.77
2019-05-11T18:00:20.320Z,14.53
2019-05-11T18:02:49.732Z,10.87
2019-05-11T18:05:20.195Z,16.00
2019-05-11T18:07:49.477Z,10.23
2019-05-11T18:10:19.822Z,12.27
2019-05-11T18:12:49.111Z,19.87
2019-05-11T18:15:19.437Z,16.00
2019-05-11T18:17:49.060Z,11.07
2019-05-11T18:20:21.963Z,13.03
2019-05-11T18:22:50.938Z,10.27
2019-05-11T18:25:20.471Z,13.17
2019-05-11T18:27:49.926Z,18.93
2019-05-11T18:30:19.291Z,9.33
2019-05-11T18:32:49.250Z,14.20
2019-05-11T18:35:19.922Z,12.60
2019-05-11T18:37:49.612Z,10.80
2019-05-11T18:40:19.148Z,16.80
2019-05-11T18:42:48.981Z,12.03
2019-05-11T18:45:19.096Z,9.77
2019-05-11T18:47:49.238Z,6.97
2019-05-11T18:50:29.766Z,9.27
2019-05-11T18:52:49.771Z,6.57
2019-05-11T18:55:19.270Z,7.37
2019-05-11T18:57:49.327Z,8.97
2019-05-11T19:00:18.882Z,7.07
2019-05-11T19:02:49.484Z,6.90
2019-05-11T19:05:20.126Z,6.70
2019-05-11T19:07:49.431Z,5.90
2019-05-11T19:10:18.714Z,10.23
2019-05-11T19:12:49.213Z,6.77
2019-05-11T19:15:19.253Z,8.53
2019-05-11T19:17:49.334Z,6.97
2019-05-11T19:20:19.984Z,9.87
2019-05-11T19:22:49.278Z,6.23
2019-05-11T19:25:19.667Z,7.03
2019-05-11T19:27:50.794Z,11.67
2019-05-11T19:30:20.367Z,23.63
2019-05-11T19:32:49.722Z,5.20
2019-05-11T19:35:20.996Z,7.70
2019-05-11T19:37:50.563Z,6.90
2019-05-11T19:40:19.839Z,9.03
2019-05-11T19:42:58.724Z,5.27
2019-05-11T19:45:29.365Z,9.70
2019-05-11T19:47:58.975Z,9.50
2019-05-11T19:50:28.352Z,9.77
2019-05-11T19:52:58.090Z,8.07
2019-05-11T19:55:28.739Z,11.37
2019-05-11T19:57:58.185Z,7.80
2019-05-11T20:00:27.475Z,8.40
2019-05-11T20:02:58.578Z,10.17
2019-05-11T20:05:28.754Z,7.83
2019-05-11T20:07:58.746Z,6.13
2019-05-11T20:10:30.277Z,9.93
2019-05-11T20:12:59.691Z,7.53
2019-05-11T20:15:29.563Z,4.93
2019-05-11T20:17:59.027Z,6.47
2019-05-11T20:20:28.607Z,7.73
2019-05-11T20:22:58.701Z,9.30
2019-05-11T20:25:28.865Z,8.63
2019-05-11T20:27:58.668Z,9.27
2019-05-11T20:30:28.214Z,3.77
2019-05-11T20:32:57.501Z,7.13
2019-05-11T20:35:27.990Z,6.80
2019-05-11T20:37:58.116Z,7.07
2019-05-11T20:40:28.549Z,8.47
2019-05-11T20:42:58.698Z,6.30
2019-05-11T20:45:29.198Z,5.60
2019-05-11T20:47:58.487Z,11.47
2019-05-11T20:50:27.803Z,10.23
2019-05-11T20:52:58.212Z,7.00
2019-05-11T20:55:28.450Z,3.87
2019-05-11T20:57:58.512Z,10.10
2019-05-11T21:00:28.977Z,5.63
2019-05-11T21:02:58.899Z,8.07
2019-05-11T21:05:29.006Z,10.67
2019-05-11T21:07:58.291Z,4.97
2019-05-11T21:10:28.080Z,11.53
2019-05-11T21:12:57.880Z,12.20
2019-05-11T21:15:28.070Z,11.63
2019-05-11T21:17:58.574Z,11.50
2019-05-11T21:20:28.714Z,7.37
2019-05-11T21:22:58.500Z,9.47
2019-05-11T21:25:28.730Z,3.60
2019-05-11T21:27:59.546Z,10.03
2019-05-11T21:30:28.895Z,12.20
2019-05-11T21:32:58.387Z,10.17
2019-05-11T21:35:28.076Z,6.67
2019-05-11T21:37:58.114Z,8.07
2019-05-11T21:40:29.068Z,7.83
2019-05-11T21:42:58.421Z,5.33
2019-05-11T21:45:28.369Z,8.73
2019-05-11T21:47:58.185Z,4.03
2019-05-11T21:50:28.058Z,8.70
2019-05-11T21:52:58.950Z,6.60
2019-05-11T21:55:29.233Z,14.87
2019-05-11T21:57:58.874Z,7.53
2019-05-11T22:00:30.567Z,7.30
2019-05-11T22:03:01.572Z,4.57
2019-05-11T22:05:30.862Z,9.03
2019-05-11T22:08:00.131Z,13.00
2019-05-11T22:10:29.456Z,12.57
2019-05-11T22:12:58.856Z,10.23
2019-05-11T22:15:28.475Z,9.30
2019-05-11T22:17:59.099Z,9.07
2019-05-11T22:20:28.812Z,10.93
2019-05-11T22:22:58.352Z,8.23
2019-05-11T22:25:28.711Z,12.57
2019-05-11T22:27:58.240Z,9.20
2019-05-11T22:30:27.947Z,7.77
2019-05-11T22:32:58.294Z,9.63
2019-05-11T22:35:28.696Z,6.87
2019-05-11T22:37:58.181Z,8.70
2019-05-11T22:40:27.983Z,13.67
2019-05-11T22:42:58.330Z,8.77
2019-05-11T22:45:28.704Z,7.00
2019-05-11T22:47:58.546Z,9.50
2019-05-11T22:50:29.047Z,6.70
2019-05-11T22:52:59.570Z,7.50
2019-05-11T22:55:28.857Z,10.33
2019-05-11T22:57:58.195Z,10.33
2019-05-11T23:00:41.544Z,6.27
2019-05-11T23:03:11.274Z,6.07
2019-05-11T23:05:41.557Z,13.30
2019-05-11T23:08:10.839Z,10.73
2019-05-11T23:10:40.107Z,11.17
2019-05-11T23:13:11.414Z,12.13
2019-05-11T23:15:40.700Z,17.23
2019-05-11T23:18:09.959Z,7.87
2019-05-11T23:20:39.247Z,8.80
2019-05-11T23:23:09.077Z,9.37
2019-05-11T23:25:38.506Z,8.53
2019-05-11T23:28:07.789Z,12.83
2019-05-11T23:30:38.874Z,9.50
2019-05-11T23:33:08.098Z,10.30
2019-05-11T23:35:38.254Z,13.07
2019-05-11T23:38:07.819Z,8.13
2019-05-11T23:40:38.006Z,6.23
2019-05-11T23:43:08.658Z,5.70
2019-05-11T23:45:38.409Z,6.53
2019-05-11T23:48:08.922Z,8.73
2019-05-11T23:50:38.835Z,8.27
2019-05-11T23:53:10.269Z,11.07
2019-05-11T23:55:40.162Z,10.27
2019-05-11T23:58:09.527Z,10.63
